sensor_id;sensor_type;location;lat;lon;timestamp;P1;durP1;ratioP1;P2;durP2;ratioP2
69087;SDS011;56190;43.562;5.036;2023-07-20T00:00:57;2.67;;;2.15;;
69087;SDS011;56190;43.562;5.036;2023-07-20T00:03:23;4.85;;;2.10;;
69087;SDS011;56190;43.562;5.036;2023-07-20T00:05:50;4.80;;;2.00;;
69087;SDS011;56190;43.562;5.036;2023-07-20T00:08:16;4.45;;;2.28;;
69087;SDS011;56190;43.562;5.036;2023-07-20T00:10:41;3.63;;;2.20;;
69087;SDS011;56190;43.562;5.036;2023-07-20T00:13:07;4.13;;;2.20;;
69087;SDS011;56190;43.562;5.036;2023-07-20T00:15:32;3.15;;;2.05;;
69087;SDS011;56190;43.562;5.036;2023-07-20T00:17:57;3.05;;;2.10;;
69087;SDS011;56190;43.562;5.036;2023-07-20T00:20:24;3.53;;;2.25;;
69087;SDS011;56190;43.562;5.036;2023-07-20T00:22:49;3.75;;;2.40;;
69087;SDS011;56190;43.562;5.036;2023-07-20T00:25:16;5.82;;;1.90;;
69087;SDS011;56190;43.562;5.036;2023-07-20T00:27:41;3.97;;;2.13;;
69087;SDS011;56190;43.562;5.036;2023-07-20T00:30:06;4.35;;;2.40;;
69087;SDS011;56190;43.562;5.036;2023-07-20T00:32:32;3.55;;;2.45;;
69087;SDS011;56190;43.562;5.036;2023-07-20T00:34:57;4.55;;;2.03;;
69087;SDS011;56190;43.562;5.036;2023-07-20T00:37:22;3.20;;;2.28;;
69087;SDS011;56190;43.562;5.036;2023-07-20T00:39:48;3.28;;;2.22;;
69087;SDS011;56190;43.562;5.036;2023-07-20T00:42:13;4.25;;;2.33;;
69087;SDS011;56190;43.562;5.036;2023-07-20T00:44:38;3.70;;;2.20;;
69087;SDS011;56190;43.562;5.036;2023-07-20T00:47:04;3.53;;;2.25;;
69087;SDS011;56190;43.562;5.036;2023-07-20T00:49:29;4.95;;;2.20;;
69087;SDS011;56190;43.562;5.036;2023-07-20T00:51:54;4.35;;;2.15;;
69087;SDS011;56190;43.562;5.036;2023-07-20T00:54:20;3.05;;;2.13;;
69087;SDS011;56190;43.562;5.036;2023-07-20T00:56:45;2.97;;;1.92;;
69087;SDS011;56190;43.562;5.036;2023-07-20T00:59:11;3.75;;;1.92;;
69087;SDS011;56190;43.562;5.036;2023-07-20T01:01:36;6.05;;;2.05;;
69087;SDS011;56190;43.562;5.036;2023-07-20T01:04:01;4.47;;;2.17;;
69087;SDS011;56190;43.562;5.036;2023-07-20T01:11:27;4.20;;;2.10;;
69087;SDS011;56190;43.562;5.036;2023-07-20T01:13:53;4.78;;;1.95;;
69087;SDS011;56190;43.562;5.036;2023-07-20T01:16:19;5.15;;;2.20;;
69087;SDS011;56190;43.562;5.036;2023-07-20T01:18:44;4.07;;;1.58;;
69087;SDS011;56190;43.562;5.036;2023-07-20T01:21:09;3.85;;;1.95;;
69087;SDS011;56190;43.562;5.036;2023-07-20T01:30:59;4.53;;;2.10;;
69087;SDS011;56190;43.562;5.036;2023-07-20T01:33:26;3.78;;;2.00;;
69087;SDS011;56190;43.562;5.036;2023-07-20T01:35:54;5.05;;;2.13;;
69087;SDS011;56190;43.562;5.036;2023-07-20T01:38:19;4.05;;;2.30;;
69087;SDS011;56190;43.562;5.036;2023-07-20T01:40:45;4.95;;;2.25;;
69087;SDS011;56190;43.562;5.036;2023-07-20T01:43:10;3.85;;;2.20;;
69087;SDS011;56190;43.562;5.036;2023-07-20T01:45:36;3.72;;;2.50;;
69087;SDS011;56190;43.562;5.036;2023-07-20T01:48:02;4.97;;;2.30;;
69087;SDS011;56190;43.562;5.036;2023-07-20T01:50:28;2.40;;;2.10;;
69087;SDS011;56190;43.562;5.036;2023-07-20T01:52:53;4.47;;;2.50;;
69087;SDS011;56190;43.562;5.036;2023-07-20T01:55:18;4.68;;;2.47;;
69087;SDS011;56190;43.562;5.036;2023-07-20T01:57:44;3.85;;;2.30;;
69087;SDS011;56190;43.562;5.036;2023-07-20T02:00:09;4.13;;;2.72;;
69087;SDS011;56190;43.562;5.036;2023-07-20T02:02:34;5.72;;;3.10;;
69087;SDS011;56190;43.562;5.036;2023-07-20T02:05:00;7.32;;;2.72;;
69087;SDS011;56190;43.562;5.036;2023-07-20T02:07:25;3.22;;;2.70;;
69087;SDS011;56190;43.562;5.036;2023-07-20T02:09:50;6.22;;;2.63;;
69087;SDS011;56190;43.562;5.036;2023-07-20T02:12:16;7.18;;;2.70;;
69087;SDS011;56190;43.562;5.036;2023-07-20T02:14:41;5.47;;;2.60;;
69087;SDS011;56190;43.562;5.036;2023-07-20T02:17:07;9.23;;;3.20;;
69087;SDS011;56190;43.562;5.036;2023-07-20T02:19:32;6.72;;;3.53;;
69087;SDS011;56190;43.562;5.036;2023-07-20T02:21:57;8.60;;;3.40;;
69087;SDS011;56190;43.562;5.036;2023-07-20T02:24:23;4.65;;;3.25;;
69087;SDS011;56190;43.562;5.036;2023-07-20T02:26:48;4.22;;;2.60;;
69087;SDS011;56190;43.562;5.036;2023-07-20T02:29:13;8.73;;;3.03;;
69087;SDS011;56190;43.562;5.036;2023-07-20T02:31:39;5.50;;;2.88;;
69087;SDS011;56190;43.562;5.036;2023-07-20T02:34:07;6.22;;;3.03;;
69087;SDS011;56190;43.562;5.036;2023-07-20T02:36:33;5.03;;;3.08;;
69087;SDS011;56190;43.562;5.036;2023-07-20T02:38:58;5.78;;;3.38;;
69087;SDS011;56190;43.562;5.036;2023-07-20T02:41:24;6.55;;;3.22;;
69087;SDS011;56190;43.562;5.036;2023-07-20T02:43:49;3.90;;;3.00;;
69087;SDS011;56190;43.562;5.036;2023-07-20T02:46:14;5.43;;;3.40;;
69087;SDS011;56190;43.562;5.036;2023-07-20T02:48:40;4.53;;;2.88;;
69087;SDS011;56190;43.562;5.036;2023-07-20T02:51:05;6.13;;;3.15;;
69087;SDS011;56190;43.562;5.036;2023-07-20T02:53:30;5.30;;;3.20;;
69087;SDS011;56190;43.562;5.036;2023-07-20T02:55:56;4.60;;;2.70;;
69087;SDS011;56190;43.562;5.036;2023-07-20T02:58:21;3.92;;;2.60;;
69087;SDS011;56190;43.562;5.036;2023-07-20T03:00:46;5.80;;;2.65;;
69087;SDS011;56190;43.562;5.036;2023-07-20T03:03:11;5.90;;;3.10;;
69087;SDS011;56190;43.562;5.036;2023-07-20T03:05:37;4.78;;;2.80;;
69087;SDS011;56190;43.562;5.036;2023-07-20T03:08:04;7.07;;;2.65;;
69087;SDS011;56190;43.562;5.036;2023-07-20T03:10:31;4.13;;;2.20;;
69087;SDS011;56190;43.562;5.036;2023-07-20T03:12:56;3.53;;;2.70;;
69087;SDS011;56190;43.562;5.036;2023-07-20T03:15:21;4.43;;;2.40;;
69087;SDS011;56190;43.562;5.036;2023-07-20T03:17:46;4.93;;;3.00;;
69087;SDS011;56190;43.562;5.036;2023-07-20T03:20:12;5.43;;;2.63;;
69087;SDS011;56190;43.562;5.036;2023-07-20T03:22:38;5.10;;;2.65;;
69087;SDS011;56190;43.562;5.036;2023-07-20T03:25:03;4.65;;;2.45;;
69087;SDS011;56190;43.562;5.036;2023-07-20T03:27:29;3.47;;;2.53;;
69087;SDS011;56190;43.562;5.036;2023-07-20T03:29:54;5.32;;;2.40;;
69087;SDS011;56190;43.562;5.036;2023-07-20T03:32:20;5.82;;;2.88;;
69087;SDS011;56190;43.562;5.036;2023-07-20T03:34:45;4.45;;;2.38;;
69087;SDS011;56190;43.562;5.036;2023-07-20T03:37:10;4.45;;;2.30;;
69087;SDS011;56190;43.562;5.036;2023-07-20T03:39:35;4.75;;;2.35;;
69087;SDS011;56190;43.562;5.036;2023-07-20T03:42:01;6.00;;;2.40;;
69087;SDS011;56190;43.562;5.036;2023-07-20T03:44:26;5.32;;;2.75;;
69087;SDS011;56190;43.562;5.036;2023-07-20T03:46:52;5.72;;;2.75;;
69087;SDS011;56190;43.562;5.036;2023-07-20T03:49:17;5.10;;;2.75;;
69087;SDS011;56190;43.562;5.036;2023-07-20T03:51:43;4.97;;;2.35;;
69087;SDS011;56190;43.562;5.036;2023-07-20T03:54:08;4.07;;;2.42;;
69087;SDS011;56190;43.562;5.036;2023-07-20T03:56:33;4.85;;;2.33;;
69087;SDS011;56190;43.562;5.036;2023-07-20T03:59:00;4.47;;;2.33;;
69087;SDS011;56190;43.562;5.036;2023-07-20T04:01:25;4.22;;;2.38;;
69087;SDS011;56190;43.562;5.036;2023-07-20T04:03:50;3.78;;;2.08;;
69087;SDS011;56190;43.562;5.036;2023-07-20T04:06:16;3.25;;;1.90;;
69087;SDS011;56190;43.562;5.036;2023-07-20T04:08:42;3.85;;;1.92;;
69087;SDS011;56190;43.562;5.036;2023-07-20T04:11:07;4.15;;;2.22;;
69087;SDS011;56190;43.562;5.036;2023-07-20T04:13:32;6.10;;;2.47;;
69087;SDS011;56190;43.562;5.036;2023-07-20T04:15:59;4.82;;;2.40;;
69087;SDS011;56190;43.562;5.036;2023-07-20T04:18:24;6.28;;;2.20;;
69087;SDS011;56190;43.562;5.036;2023-07-20T04:20:49;3.88;;;1.90;;
69087;SDS011;56190;43.562;5.036;2023-07-20T04:23:15;3.47;;;2.00;;
69087;SDS011;56190;43.562;5.036;2023-07-20T04:25:40;4.15;;;1.92;;
69087;SDS011;56190;43.562;5.036;2023-07-20T04:28:06;3.05;;;1.95;;
69087;SDS011;56190;43.562;5.036;2023-07-20T04:30:33;4.22;;;1.90;;
69087;SDS011;56190;43.562;5.036;2023-07-20T04:32:59;4.05;;;2.33;;
69087;SDS011;56190;43.562;5.036;2023-07-20T04:38:08;5.32;;;2.33;;
69087;SDS011;56190;43.562;5.036;2023-07-20T04:40:33;4.30;;;1.98;;
69087;SDS011;56190;43.562;5.036;2023-07-20T04:42:58;4.07;;;2.00;;
69087;SDS011;56190;43.562;5.036;2023-07-20T04:45:23;6.78;;;1.80;;
69087;SDS011;56190;43.562;5.036;2023-07-20T04:47:49;4.07;;;2.03;;
69087;SDS011;56190;43.562;5.036;2023-07-20T04:50:16;2.25;;;1.63;;
69087;SDS011;56190;43.562;5.036;2023-07-20T04:52:41;4.15;;;2.00;;
69087;SDS011;56190;43.562;5.036;2023-07-20T04:55:06;3.42;;;1.85;;
69087;SDS011;56190;43.562;5.036;2023-07-20T04:57:32;4.47;;;1.90;;
69087;SDS011;56190;43.562;5.036;2023-07-20T04:59:57;5.20;;;1.90;;
69087;SDS011;56190;43.562;5.036;2023-07-20T05:02:23;3.58;;;1.98;;
69087;SDS011;56190;43.562;5.036;2023-07-20T05:04:48;4.13;;;1.50;;
69087;SDS011;56190;43.562;5.036;2023-07-20T05:07:13;4.07;;;1.92;;
69087;SDS011;56190;43.562;5.036;2023-07-20T05:09:38;3.35;;;1.90;;
69087;SDS011;56190;43.562;5.036;2023-07-20T05:12:04;4.53;;;1.90;;
69087;SDS011;56190;43.562;5.036;2023-07-20T05:14:29;4.32;;;2.05;;
69087;SDS011;56190;43.562;5.036;2023-07-20T05:16:54;4.65;;;2.10;;
69087;SDS011;56190;43.562;5.036;2023-07-20T05:19:19;6.90;;;2.42;;
69087;SDS011;56190;43.562;5.036;2023-07-20T05:21:44;3.55;;;1.75;;
69087;SDS011;56190;43.562;5.036;2023-07-20T05:24:10;4.78;;;1.80;;
69087;SDS011;56190;43.562;5.036;2023-07-20T05:26:35;2.47;;;1.88;;
69087;SDS011;56190;43.562;5.036;2023-07-20T05:29:00;7.10;;;2.20;;
69087;SDS011;56190;43.562;5.036;2023-07-20T05:31:25;5.65;;;1.60;;
69087;SDS011;56190;43.562;5.036;2023-07-20T05:33:51;4.00;;;1.58;;
69087;SDS011;56190;43.562;5.036;2023-07-20T05:36:16;3.70;;;1.85;;
69087;SDS011;56190;43.562;5.036;2023-07-20T05:38:41;5.97;;;2.00;;
69087;SDS011;56190;43.562;5.036;2023-07-20T05:41:07;4.18;;;1.88;;
69087;SDS011;56190;43.562;5.036;2023-07-20T05:43:35;4.53;;;2.25;;
69087;SDS011;56190;43.562;5.036;2023-07-20T05:46:00;4.55;;;2.03;;
69087;SDS011;56190;43.562;5.036;2023-07-20T05:48:25;4.78;;;1.80;;
69087;SDS011;56190;43.562;5.036;2023-07-20T05:50:51;5.25;;;1.70;;
69087;SDS011;56190;43.562;5.036;2023-07-20T05:53:16;4.47;;;1.90;;
69087;SDS011;56190;43.562;5.036;2023-07-20T05:55:41;4.70;;;2.35;;
69087;SDS011;56190;43.562;5.036;2023-07-20T05:58:06;4.68;;;1.98;;
69087;SDS011;56190;43.562;5.036;2023-07-20T06:00:32;3.33;;;1.88;;
69087;SDS011;56190;43.562;5.036;2023-07-20T06:02:57;3.72;;;1.73;;
69087;SDS011;56190;43.562;5.036;2023-07-20T06:05:22;4.57;;;2.00;;
69087;SDS011;56190;43.562;5.036;2023-07-20T06:07:48;4.75;;;2.05;;
69087;SDS011;56190;43.562;5.036;2023-07-20T06:10:14;6.30;;;2.20;;
69087;SDS011;56190;43.562;5.036;2023-07-20T06:12:39;5.88;;;2.05;;
69087;SDS011;56190;43.562;5.036;2023-07-20T06:15:05;3.58;;;1.75;;
69087;SDS011;56190;43.562;5.036;2023-07-20T06:17:30;3.53;;;1.90;;
69087;SDS011;56190;43.562;5.036;2023-07-20T06:19:56;3.80;;;1.92;;
69087;SDS011;56190;43.562;5.036;2023-07-20T06:22:21;2.78;;;1.88;;
69087;SDS011;56190;43.562;5.036;2023-07-20T06:24:46;3.70;;;1.88;;
69087;SDS011;56190;43.562;5.036;2023-07-20T06:27:11;5.20;;;2.15;;
69087;SDS011;56190;43.562;5.036;2023-07-20T06:29:37;4.65;;;2.05;;
69087;SDS011;56190;43.562;5.036;2023-07-20T06:32:02;3.78;;;2.17;;
69087;SDS011;56190;43.562;5.036;2023-07-20T06:34:27;4.28;;;1.95;;
69087;SDS011;56190;43.562;5.036;2023-07-20T06:36:54;3.33;;;1.98;;
69087;SDS011;56190;43.562;5.036;2023-07-20T06:39:19;3.58;;;1.95;;
69087;SDS011;56190;43.562;5.036;2023-07-20T06:41:44;3.05;;;1.60;;
69087;SDS011;56190;43.562;5.036;2023-07-20T06:44:10;3.90;;;1.90;;
69087;SDS011;56190;43.562;5.036;2023-07-20T06:46:36;4.30;;;1.77;;
69087;SDS011;56190;43.562;5.036;2023-07-20T06:49:02;4.10;;;1.65;;
69087;SDS011;56190;43.562;5.036;2023-07-20T06:51:27;4.05;;;1.73;;
69087;SDS011;56190;43.562;5.036;2023-07-20T06:53:52;4.15;;;1.85;;
69087;SDS011;56190;43.562;5.036;2023-07-20T06:56:17;3.63;;;1.80;;
69087;SDS011;56190;43.562;5.036;2023-07-20T06:58:43;2.65;;;1.77;;
69087;SDS011;56190;43.562;5.036;2023-07-20T07:01:08;4.50;;;1.65;;
69087;SDS011;56190;43.562;5.036;2023-07-20T07:03:33;3.97;;;1.90;;
69087;SDS011;56190;43.562;5.036;2023-07-20T07:05:59;3.10;;;1.83;;
69087;SDS011;56190;43.562;5.036;2023-07-20T07:08:24;4.05;;;1.50;;
69087;SDS011;56190;43.562;5.036;2023-07-20T07:10:50;2.97;;;1.75;;
69087;SDS011;56190;43.562;5.036;2023-07-20T07:13:15;5.78;;;2.55;;
69087;SDS011;56190;43.562;5.036;2023-07-20T07:15:40;5.50;;;2.08;;
69087;SDS011;56190;43.562;5.036;2023-07-20T07:18:05;2.50;;;1.85;;
69087;SDS011;56190;43.562;5.036;2023-07-20T07:20:31;3.15;;;1.80;;
69087;SDS011;56190;43.562;5.036;2023-07-20T07:22:56;2.70;;;1.90;;
69087;SDS011;56190;43.562;5.036;2023-07-20T07:25:22;6.03;;;2.08;;
69087;SDS011;56190;43.562;5.036;2023-07-20T07:27:47;4.68;;;1.80;;
69087;SDS011;56190;43.562;5.036;2023-07-20T07:30:12;4.13;;;1.55;;
69087;SDS011;56190;43.562;5.036;2023-07-20T07:32:37;3.45;;;2.03;;
69087;SDS011;56190;43.562;5.036;2023-07-20T07:35:03;6.20;;;1.88;;
69087;SDS011;56190;43.562;5.036;2023-07-20T07:37:29;4.07;;;2.03;;
69087;SDS011;56190;43.562;5.036;2023-07-20T07:39:54;3.95;;;1.85;;
69087;SDS011;56190;43.562;5.036;2023-07-20T07:42:20;7.40;;;1.92;;
69087;SDS011;56190;43.562;5.036;2023-07-20T07:44:45;3.70;;;1.80;;
69087;SDS011;56190;43.562;5.036;2023-07-20T07:47:10;5.90;;;2.05;;
69087;SDS011;56190;43.562;5.036;2023-07-20T07:49:36;3.63;;;1.60;;
69087;SDS011;56190;43.562;5.036;2023-07-20T07:52:01;4.65;;;1.67;;
69087;SDS011;56190;43.562;5.036;2023-07-20T07:54:29;6.68;;;2.03;;
69087;SDS011;56190;43.562;5.036;2023-07-20T07:56:54;5.93;;;2.17;;
69087;SDS011;56190;43.562;5.036;2023-07-20T07:59:20;4.68;;;1.73;;
69087;SDS011;56190;43.562;5.036;2023-07-20T08:01:45;5.40;;;2.38;;
69087;SDS011;56190;43.562;5.036;2023-07-20T08:04:10;4.00;;;1.88;;
69087;SDS011;56190;43.562;5.036;2023-07-20T08:06:36;3.47;;;2.10;;
69087;SDS011;56190;43.562;5.036;2023-07-20T08:09:01;4.18;;;2.10;;
69087;SDS011;56190;43.562;5.036;2023-07-20T08:11:26;4.15;;;2.10;;
69087;SDS011;56190;43.562;5.036;2023-07-20T08:13:52;3.45;;;2.00;;
69087;SDS011;56190;43.562;5.036;2023-07-20T08:16:17;4.40;;;1.83;;
69087;SDS011;56190;43.562;5.036;2023-07-20T08:18:43;3.83;;;1.90;;
69087;SDS011;56190;43.562;5.036;2023-07-20T08:21:08;6.43;;;2.13;;
69087;SDS011;56190;43.562;5.036;2023-07-20T08:23:33;4.83;;;2.20;;
69087;SDS011;56190;43.562;5.036;2023-07-20T08:25:59;3.15;;;2.17;;
69087;SDS011;56190;43.562;5.036;2023-07-20T08:28:24;9.35;;;1.75;;
69087;SDS011;56190;43.562;5.036;2023-07-20T08:30:51;3.70;;;1.90;;
69087;SDS011;56190;43.562;5.036;2023-07-20T08:33:17;7.32;;;2.50;;
69087;SDS011;56190;43.562;5.036;2023-07-20T08:35:45;2.92;;;1.80;;
69087;SDS011;56190;43.562;5.036;2023-07-20T08:38:11;4.85;;;2.10;;
69087;SDS011;56190;43.562;5.036;2023-07-20T08:40:39;5.55;;;1.92;;
69087;SDS011;56190;43.562;5.036;2023-07-20T08:43:05;5.97;;;1.85;;
69087;SDS011;56190;43.562;5.036;2023-07-20T08:45:30;4.85;;;1.88;;
69087;SDS011;56190;43.562;5.036;2023-07-20T08:47:58;4.20;;;1.73;;
69087;SDS011;56190;43.562;5.036;2023-07-20T08:50:24;4.70;;;1.92;;
69087;SDS011;56190;43.562;5.036;2023-07-20T08:52:50;4.80;;;1.90;;
69087;SDS011;56190;43.562;5.036;2023-07-20T08:55:17;5.68;;;2.40;;
69087;SDS011;56190;43.562;5.036;2023-07-20T08:57:42;7.07;;;2.05;;
69087;SDS011;56190;43.562;5.036;2023-07-20T09:00:09;3.30;;;2.08;;
69087;SDS011;56190;43.562;5.036;2023-07-20T09:02:38;3.97;;;2.10;;
69087;SDS011;56190;43.562;5.036;2023-07-20T09:05:04;3.75;;;1.80;;
69087;SDS011;56190;43.562;5.036;2023-07-20T09:07:30;4.43;;;2.10;;
69087;SDS011;56190;43.562;5.036;2023-07-20T09:09:56;4.75;;;2.00;;
69087;SDS011;56190;43.562;5.036;2023-07-20T09:12:22;4.10;;;1.90;;
69087;SDS011;56190;43.562;5.036;2023-07-20T09:14:47;3.70;;;1.98;;
69087;SDS011;56190;43.562;5.036;2023-07-20T09:17:13;6.77;;;2.23;;
69087;SDS011;56190;43.562;5.036;2023-07-20T09:19:38;4.75;;;1.90;;
69087;SDS011;56190;43.562;5.036;2023-07-20T09:22:04;6.28;;;1.90;;
69087;SDS011;56190;43.562;5.036;2023-07-20T09:24:30;4.15;;;2.20;;
69087;SDS011;56190;43.562;5.036;2023-07-20T09:26:56;3.47;;;2.30;;
69087;SDS011;56190;43.562;5.036;2023-07-20T09:29:22;5.63;;;2.10;;
69087;SDS011;56190;43.562;5.036;2023-07-20T09:32:03;5.80;;;2.13;;
69087;SDS011;56190;43.562;5.036;2023-07-20T09:34:29;4.80;;;1.83;;
69087;SDS011;56190;43.562;5.036;2023-07-20T09:36:56;4.15;;;2.30;;
69087;SDS011;56190;43.562;5.036;2023-07-20T09:39:22;6.38;;;2.40;;
69087;SDS011;56190;43.562;5.036;2023-07-20T09:41:47;3.67;;;1.90;;
69087;SDS011;56190;43.562;5.036;2023-07-20T09:44:15;2.58;;;1.60;;
69087;SDS011;56190;43.562;5.036;2023-07-20T09:46:41;4.10;;;1.90;;
69087;SDS011;56190;43.562;5.036;2023-07-20T09:49:08;5.10;;;1.83;;
69087;SDS011;56190;43.562;5.036;2023-07-20T09:51:33;4.63;;;2.15;;
69087;SDS011;56190;43.562;5.036;2023-07-20T09:53:59;5.13;;;1.90;;
69087;SDS011;56190;43.562;5.036;2023-07-20T09:56:24;3.58;;;1.75;;
69087;SDS011;56190;43.562;5.036;2023-07-20T09:58:50;5.40;;;1.92;;
69087;SDS011;56190;43.562;5.036;2023-07-20T10:01:17;3.65;;;1.80;;
69087;SDS011;56190;43.562;5.036;2023-07-20T10:03:43;4.47;;;1.92;;
69087;SDS011;56190;43.562;5.036;2023-07-20T10:06:10;5.18;;;2.15;;
69087;SDS011;56190;43.562;5.036;2023-07-20T10:08:41;7.13;;;2.05;;
69087;SDS011;56190;43.562;5.036;2023-07-20T10:11:07;5.93;;;2.47;;
69087;SDS011;56190;43.562;5.036;2023-07-20T10:13:32;7.07;;;1.83;;
69087;SDS011;56190;43.562;5.036;2023-07-20T10:16:21;6.35;;;2.22;;
69087;SDS011;56190;43.562;5.036;2023-07-20T10:21:24;6.28;;;2.28;;
69087;SDS011;56190;43.562;5.036;2023-07-20T10:23:50;6.10;;;2.08;;
69087;SDS011;56190;43.562;5.036;2023-07-20T10:26:16;3.03;;;1.92;;
69087;SDS011;56190;43.562;5.036;2023-07-20T10:28:50;7.72;;;2.30;;
69087;SDS011;56190;43.562;5.036;2023-07-20T10:31:15;10.02;;;2.40;;
69087;SDS011;56190;43.562;5.036;2023-07-20T10:33:40;4.72;;;1.90;;
69087;SDS011;56190;43.562;5.036;2023-07-20T10:36:06;2.95;;;1.80;;
69087;SDS011;56190;43.562;5.036;2023-07-20T10:41:16;6.35;;;1.90;;
69087;SDS011;56190;43.562;5.036;2023-07-20T10:43:42;5.80;;;2.40;;
69087;SDS011;56190;43.562;5.036;2023-07-20T10:46:07;4.25;;;2.28;;
69087;SDS011;56190;43.562;5.036;2023-07-20T10:48:35;4.22;;;2.03;;
69087;SDS011;56190;43.562;5.036;2023-07-20T10:51:20;5.40;;;2.10;;
69087;SDS011;56190;43.562;5.036;2023-07-20T10:53:47;3.13;;;1.95;;
69087;SDS011;56190;43.562;5.036;2023-07-20T10:56:14;5.35;;;2.00;;
69087;SDS011;56190;43.562;5.036;2023-07-20T10:58:40;5.53;;;1.80;;
69087;SDS011;56190;43.562;5.036;2023-07-20T11:01:08;3.08;;;1.77;;
69087;SDS011;56190;43.562;5.036;2023-07-20T11:03:34;9.40;;;2.22;;
69087;SDS011;56190;43.562;5.036;2023-07-20T11:06:01;5.32;;;2.30;;
69087;SDS011;56190;43.562;5.036;2023-07-20T11:08:45;3.90;;;1.77;;
69087;SDS011;56190;43.562;5.036;2023-07-20T11:11:23;5.13;;;1.83;;
69087;SDS011;56190;43.562;5.036;2023-07-20T11:13:57;3.97;;;1.90;;
69087;SDS011;56190;43.562;5.036;2023-07-20T11:16:36;3.15;;;1.52;;
69087;SDS011;56190;43.562;5.036;2023-07-20T11:19:02;3.50;;;1.75;;
69087;SDS011;56190;43.562;5.036;2023-07-20T11:21:28;3.83;;;1.88;;
69087;SDS011;56190;43.562;5.036;2023-07-20T11:23:54;5.82;;;2.00;;
69087;SDS011;56190;43.562;5.036;2023-07-20T11:26:20;4.15;;;2.10;;
69087;SDS011;56190;43.562;5.036;2023-07-20T11:28:49;4.60;;;1.77;;
69087;SDS011;56190;43.562;5.036;2023-07-20T11:31:14;6.28;;;2.03;;
69087;SDS011;56190;43.562;5.036;2023-07-20T11:33:41;3.70;;;1.90;;
69087;SDS011;56190;43.562;5.036;2023-07-20T11:36:08;4.63;;;2.10;;
69087;SDS011;56190;43.562;5.036;2023-07-20T11:38:33;5.03;;;1.92;;
69087;SDS011;56190;43.562;5.036;2023-07-20T11:40:58;5.17;;;1.70;;
69087;SDS011;56190;43.562;5.036;2023-07-20T11:43:23;3.83;;;1.50;;
69087;SDS011;56190;43.562;5.036;2023-07-20T11:45:49;2.15;;;1.60;;
69087;SDS011;56190;43.562;5.036;2023-07-20T11:48:17;5.13;;;1.65;;
69087;SDS011;56190;43.562;5.036;2023-07-20T11:50:42;4.72;;;2.00;;
69087;SDS011;56190;43.562;5.036;2023-07-20T11:53:08;7.55;;;1.88;;
69087;SDS011;56190;43.562;5.036;2023-07-20T11:55:33;3.28;;;2.00;;
69087;SDS011;56190;43.562;5.036;2023-07-20T11:58:05;2.95;;;1.80;;
69087;SDS011;56190;43.562;5.036;2023-07-20T12:00:31;2.30;;;1.38;;
69087;SDS011;56190;43.562;5.036;2023-07-20T12:02:57;3.45;;;1.92;;
69087;SDS011;56190;43.562;5.036;2023-07-20T12:05:22;2.55;;;1.70;;
69087;SDS011;56190;43.562;5.036;2023-07-20T12:07:48;2.15;;;1.95;;
69087;SDS011;56190;43.562;5.036;2023-07-20T12:10:15;2.40;;;1.75;;
69087;SDS011;56190;43.562;5.036;2023-07-20T12:12:41;2.65;;;1.88;;
69087;SDS011;56190;43.562;5.036;2023-07-20T12:15:16;3.88;;;1.60;;
69087;SDS011;56190;43.562;5.036;2023-07-20T12:17:46;3.75;;;1.83;;
69087;SDS011;56190;43.562;5.036;2023-07-20T12:20:11;4.88;;;1.65;;
69087;SDS011;56190;43.562;5.036;2023-07-20T12:22:40;3.30;;;1.77;;
69087;SDS011;56190;43.562;5.036;2023-07-20T12:25:06;2.67;;;1.75;;
69087;SDS011;56190;43.562;5.036;2023-07-20T12:27:32;6.47;;;2.13;;
69087;SDS011;56190;43.562;5.036;2023-07-20T12:29:58;3.17;;;1.70;;
69087;SDS011;56190;43.562;5.036;2023-07-20T12:32:23;5.18;;;1.90;;
69087;SDS011;56190;43.562;5.036;2023-07-20T12:34:48;2.97;;;1.70;;
69087;SDS011;56190;43.562;5.036;2023-07-20T12:37:13;4.45;;;1.77;;
69087;SDS011;56190;43.562;5.036;2023-07-20T12:39:38;3.73;;;1.80;;
69087;SDS011;56190;43.562;5.036;2023-07-20T12:42:05;2.55;;;1.73;;
69087;SDS011;56190;43.562;5.036;2023-07-20T12:44:31;6.47;;;1.90;;
69087;SDS011;56190;43.562;5.036;2023-07-20T12:46:56;2.40;;;1.70;;
69087;SDS011;56190;43.562;5.036;2023-07-20T12:49:21;3.17;;;1.48;;
69087;SDS011;56190;43.562;5.036;2023-07-20T12:51:47;2.13;;;1.58;;
69087;SDS011;56190;43.562;5.036;2023-07-20T12:54:12;3.83;;;1.65;;
69087;SDS011;56190;43.562;5.036;2023-07-20T12:56:37;2.75;;;1.55;;
69087;SDS011;56190;43.562;5.036;2023-07-20T12:59:03;4.53;;;1.73;;
69087;SDS011;56190;43.562;5.036;2023-07-20T13:01:30;4.13;;;1.70;;
69087;SDS011;56190;43.562;5.036;2023-07-20T13:03:55;4.60;;;2.00;;
69087;SDS011;56190;43.562;5.036;2023-07-20T13:06:20;3.60;;;2.08;;
69087;SDS011;56190;43.562;5.036;2023-07-20T13:08:46;2.67;;;1.90;;
69087;SDS011;56190;43.562;5.036;2023-07-20T13:11:12;3.08;;;1.92;;
69087;SDS011;56190;43.562;5.036;2023-07-20T13:13:37;3.47;;;1.53;;
69087;SDS011;56190;43.562;5.036;2023-07-20T13:16:02;3.60;;;1.80;;
69087;SDS011;56190;43.562;5.036;2023-07-20T13:18:27;4.40;;;2.22;;
69087;SDS011;56190;43.562;5.036;2023-07-20T13:20:52;4.70;;;1.90;;
69087;SDS011;56190;43.562;5.036;2023-07-20T13:23:18;3.70;;;2.03;;
69087;SDS011;56190;43.562;5.036;2023-07-20T13:25:43;2.65;;;1.80;;
69087;SDS011;56190;43.562;5.036;2023-07-20T13:28:09;2.13;;;1.67;;
69087;SDS011;56190;43.562;5.036;2023-07-20T13:30:34;3.42;;;1.75;;
69087;SDS011;56190;43.562;5.036;2023-07-20T13:32:59;3.40;;;1.63;;
69087;SDS011;56190;43.562;5.036;2023-07-20T13:35:25;4.07;;;1.80;;
69087;SDS011;56190;43.562;5.036;2023-07-20T13:37:50;2.90;;;1.70;;
69087;SDS011;56190;43.562;5.036;2023-07-20T13:40:16;3.55;;;1.70;;
69087;SDS011;56190;43.562;5.036;2023-07-20T13:42:43;3.72;;;1.80;;
69087;SDS011;56190;43.562;5.036;2023-07-20T13:45:08;2.95;;;1.65;;
69087;SDS011;56190;43.562;5.036;2023-07-20T13:47:34;5.78;;;2.05;;
69087;SDS011;56190;43.562;5.036;2023-07-20T13:49:59;3.45;;;1.90;;
69087;SDS011;56190;43.562;5.036;2023-07-20T13:52:26;2.92;;;1.70;;
69087;SDS011;56190;43.562;5.036;2023-07-20T13:54:51;5.20;;;1.93;;
69087;SDS011;56190;43.562;5.036;2023-07-20T13:57:16;2.40;;;2.20;;
69087;SDS011;56190;43.562;5.036;2023-07-20T13:59:41;2.90;;;1.80;;
69087;SDS011;56190;43.562;5.036;2023-07-20T14:02:07;3.83;;;1.98;;
69087;SDS011;56190;43.562;5.036;2023-07-20T14:04:32;4.60;;;1.90;;
69087;SDS011;56190;43.562;5.036;2023-07-20T14:06:57;2.97;;;1.90;;
69087;SDS011;56190;43.562;5.036;2023-07-20T14:09:22;4.20;;;1.73;;
69087;SDS011;56190;43.562;5.036;2023-07-20T14:11:48;3.17;;;2.03;;
69087;SDS011;56190;43.562;5.036;2023-07-20T14:14:13;4.17;;;1.80;;
69087;SDS011;56190;43.562;5.036;2023-07-20T14:16:38;3.67;;;2.00;;
69087;SDS011;56190;43.562;5.036;2023-07-20T14:19:04;2.90;;;1.70;;
69087;SDS011;56190;43.562;5.036;2023-07-20T14:21:30;2.20;;;2.00;;
69087;SDS011;56190;43.562;5.036;2023-07-20T14:23:56;5.53;;;2.10;;
69087;SDS011;56190;43.562;5.036;2023-07-20T14:26:22;3.25;;;1.73;;
69087;SDS011;56190;43.562;5.036;2023-07-20T14:28:48;5.05;;;2.05;;
69087;SDS011;56190;43.562;5.036;2023-07-20T14:31:13;2.45;;;1.75;;
69087;SDS011;56190;43.562;5.036;2023-07-20T14:33:38;3.85;;;1.70;;
69087;SDS011;56190;43.562;5.036;2023-07-20T14:36:04;2.83;;;1.73;;
69087;SDS011;56190;43.562;5.036;2023-07-20T14:38:30;6.32;;;2.30;;
69087;SDS011;56190;43.562;5.036;2023-07-20T14:40:55;4.07;;;1.80;;
69087;SDS011;56190;43.562;5.036;2023-07-20T14:43:21;4.80;;;2.60;;
69087;SDS011;56190;43.562;5.036;2023-07-20T14:45:46;3.60;;;1.95;;
69087;SDS011;56190;43.562;5.036;2023-07-20T14:48:11;5.93;;;2.30;;
69087;SDS011;56190;43.562;5.036;2023-07-20T14:50:37;4.95;;;2.08;;
69087;SDS011;56190;43.562;5.036;2023-07-20T14:53:02;2.45;;;1.88;;
69087;SDS011;56190;43.562;5.036;2023-07-20T14:55:28;2.40;;;1.90;;
69087;SDS011;56190;43.562;5.036;2023-07-20T14:57:53;4.07;;;2.10;;
69087;SDS011;56190;43.562;5.036;2023-07-20T15:00:18;3.47;;;2.23;;